createdAt,value
2019-01-04T00:00:45.947Z,14.70
2019-01-04T00:05:41.522Z,11.73
2019-01-04T00:10:37.039Z,12.67
2019-01-04T00:15:32.657Z,11.87
2019-01-04T00:20:28.159Z,18.93
2019-01-04T00:25:23.928Z,14.97
2019-01-04T00:30:22.652Z,11.10
2019-01-04T00:35:18.294Z,14.23
2019-01-04T00:40:13.964Z,17.67
2019-01-04T00:45:09.783Z,12.50
2019-01-04T00:50:06.138Z,14.80
2019-01-04T00:55:16.290Z,14.90
2019-01-04T01:01:22.621Z,18.70
2019-01-04T01:07:26.150Z,15.47
2019-01-04T01:13:34.633Z,17.43
2019-01-04T01:19:16.084Z,17.20
2019-01-04T01:25:00.266Z,19.97
2019-01-04T01:30:18.043Z,19.40
2019-01-04T01:35:54.398Z,23.43
2019-01-04T01:42:13.922Z,19.77
2019-01-04T01:47:23.641Z,21.80
2019-01-04T01:52:29.392Z,28.50
2019-01-04T01:57:25.001Z,30.83
2019-01-04T02:02:20.496Z,32.80
2019-01-04T02:07:16.028Z,39.13
2019-01-04T02:12:11.549Z,46.37
2019-01-04T02:17:07.123Z,45.67
2019-01-04T02:22:02.830Z,45.60
2019-01-04T02:26:58.419Z,39.50
2019-01-04T02:31:54.131Z,45.70
2019-01-04T02:36:49.624Z,46.37
2019-01-04T02:41:45.083Z,40.97
2019-01-04T02:46:40.805Z,44.67
2019-01-04T02:51:36.501Z,45.57
2019-01-04T02:56:34.348Z,45.57
2019-01-04T03:01:29.993Z,38.83
2019-01-04T03:06:25.713Z,39.43
2019-01-04T03:11:21.355Z,41.30
2019-01-04T03:16:17.300Z,44.07
2019-01-04T03:21:12.877Z,41.77
2019-01-04T03:26:08.381Z,42.37
2019-01-04T03:31:03.819Z,39.33
2019-01-04T03:36:00.691Z,42.47
2019-01-04T03:40:56.246Z,39.50
2019-01-04T03:45:51.783Z,34.13
2019-01-04T03:50:47.498Z,37.40
2019-01-04T03:55:43.001Z,37.87
2019-01-04T04:00:38.462Z,40.47
2019-01-04T04:05:34.067Z,39.80
2019-01-04T04:10:29.575Z,45.43
2019-01-04T04:15:25.054Z,42.27
2019-01-04T04:20:20.667Z,43.07
2019-01-04T04:25:16.352Z,42.47
2019-01-04T04:30:11.790Z,44.53
2019-01-04T04:35:07.416Z,45.87
2019-01-04T04:40:03.103Z,42.27
2019-01-04T04:44:58.653Z,40.33
2019-01-04T04:49:54.278Z,46.50
2019-01-04T04:54:49.796Z,36.13
2019-01-04T04:59:45.356Z,35.10
2019-01-04T05:04:40.885Z,35.43
2019-01-04T05:09:36.458Z,33.10
2019-01-04T05:14:32.011Z,30.43
2019-01-04T05:19:27.644Z,26.77
2019-01-04T05:24:23.123Z,26.83
2019-01-04T05:29:18.557Z,27.60
2019-01-04T05:34:14.046Z,28.20
2019-01-04T05:39:09.761Z,25.23
2019-01-04T05:44:05.257Z,28.10
2019-01-04T05:49:00.711Z,25.60
2019-01-04T05:53:56.200Z,23.90
2019-01-04T05:58:51.645Z,25.83
2019-01-04T06:03:47.120Z,27.13
2019-01-04T06:08:42.572Z,28.13
2019-01-04T06:13:38.150Z,31.20
2019-01-04T06:18:33.600Z,26.97
2019-01-04T06:23:29.163Z,30.50
2019-01-04T06:28:24.587Z,26.77
2019-01-04T06:33:20.106Z,26.10
2019-01-04T06:38:15.602Z,25.67
2019-01-04T06:43:11.076Z,27.27
2019-01-04T06:48:06.642Z,28.77
2019-01-04T06:53:02.120Z,25.57
2019-01-04T06:57:57.606Z,24.17
2019-01-04T07:02:53.126Z,31.13
2019-01-04T07:07:48.588Z,27.47
2019-01-04T07:12:44.088Z,33.50
2019-01-04T07:17:39.580Z,32.67
2019-01-04T07:22:35.047Z,39.97
2019-01-04T07:27:30.547Z,42.67
2019-01-04T07:32:26.171Z,40.97
2019-01-04T07:37:21.665Z,42.73
2019-01-04T07:42:17.307Z,49.10
2019-01-04T07:47:12.830Z,53.13
2019-01-04T07:52:08.403Z,58.63
2019-01-04T07:57:03.942Z,54.07
2019-01-04T08:01:59.468Z,60.50
2019-01-04T08:06:55.261Z,58.67
2019-01-04T08:11:50.896Z,56.67
2019-01-04T08:16:49.735Z,56.07
2019-01-04T08:21:45.365Z,49.07
2019-01-04T08:26:41.133Z,44.13
2019-01-04T08:31:36.599Z,40.67
2019-01-04T08:36:32.425Z,40.70
2019-01-04T08:41:28.117Z,34.60
2019-01-04T08:46:23.609Z,30.87
2019-01-04T08:51:19.042Z,27.10
2019-01-04T08:56:14.681Z,29.73
2019-01-04T09:01:10.171Z,22.13
2019-01-04T09:06:05.873Z,23.10
2019-01-04T09:11:01.542Z,25.77
2019-01-04T09:15:57.046Z,22.63
2019-01-04T09:20:52.502Z,24.40
2019-01-04T09:25:48.110Z,22.23
2019-01-04T09:30:43.673Z,25.07
2019-01-04T09:35:39.238Z,26.33
2019-01-04T09:40:34.915Z,22.67
2019-01-04T09:45:30.558Z,21.40
2019-01-04T09:50:26.031Z,19.57
2019-01-04T09:55:21.476Z,18.57
2019-01-04T10:00:16.947Z,19.50
2019-01-04T10:05:12.920Z,19.10
2019-01-04T10:10:11.524Z,17.57
2019-01-04T10:15:08.831Z,19.23
2019-01-04T10:20:04.392Z,22.10
2019-01-04T10:24:59.864Z,20.93
2019-01-04T10:29:56.760Z,21.63
2019-01-04T10:34:52.253Z,20.67
2019-01-04T10:39:47.826Z,22.60
2019-01-04T10:44:43.322Z,20.13
2019-01-04T10:49:38.832Z,22.70
2019-01-04T10:54:34.317Z,26.20
2019-01-04T10:59:29.779Z,25.23
2019-01-04T11:04:25.433Z,28.90
2019-01-04T11:09:21.066Z,27.43
2019-01-04T11:14:16.580Z,24.43
2019-01-04T11:19:12.061Z,24.83
2019-01-04T11:24:48.883Z,24.33
2019-01-04T11:30:36.416Z,23.47
2019-01-04T11:36:28.893Z,20.30
2019-01-04T11:42:42.364Z,16.23
2019-01-04T11:48:14.835Z,14.57
2019-01-04T11:53:16.819Z,10.50
2019-01-04T11:58:12.316Z,11.13
2019-01-04T12:03:07.795Z,13.50
2019-01-04T12:08:03.286Z,15.87
2019-01-04T12:12:58.836Z,15.13
2019-01-04T12:17:55.949Z,15.03
2019-01-04T12:22:51.976Z,17.43
2019-01-04T12:27:48.297Z,18.30
2019-01-04T12:32:44.704Z,12.60
2019-01-04T12:37:42.703Z,15.00
2019-01-04T12:42:39.065Z,14.53
2019-01-04T12:47:35.422Z,14.40
2019-01-04T12:52:31.188Z,17.23
2019-01-04T12:57:26.726Z,20.60
2019-01-04T13:02:22.786Z,18.27
2019-01-04T13:07:18.465Z,20.30
2019-01-04T13:12:14.625Z,21.13
2019-01-04T13:17:10.713Z,24.83
2019-01-04T13:22:07.852Z,22.17
2019-01-04T13:27:03.592Z,26.30
2019-01-04T13:31:59.657Z,28.57
2019-01-04T13:36:56.381Z,26.00
2019-01-04T13:41:52.894Z,27.70
2019-01-04T13:46:48.912Z,30.63
2019-01-04T13:51:46.771Z,29.60
2019-01-04T13:56:43.489Z,26.63
2019-01-04T14:01:39.116Z,26.37
2019-01-04T14:06:35.372Z,30.70
2019-01-04T14:11:31.482Z,35.83
2019-01-04T14:16:27.254Z,33.93
2019-01-04T14:21:26.025Z,31.17
2019-01-04T14:26:21.516Z,28.33
2019-01-04T14:31:17.031Z,32.63
2019-01-04T14:36:12.730Z,29.33
2019-01-04T14:41:08.215Z,30.67
2019-01-04T14:46:03.730Z,35.33
2019-01-04T14:50:59.254Z,39.40
2019-01-04T14:55:54.781Z,34.40
2019-01-04T15:00:50.248Z,29.47
2019-01-04T15:05:50.451Z,31.70
2019-01-04T15:10:46.143Z,31.77
2019-01-04T15:15:41.746Z,31.07
2019-01-04T15:20:37.263Z,33.23
2019-01-04T15:25:32.802Z,40.43
2019-01-04T15:30:28.309Z,39.00
2019-01-04T15:35:24.023Z,47.17
2019-01-04T15:40:19.527Z,47.23
2019-01-04T15:45:15.113Z,47.17
2019-01-04T15:50:11.158Z,49.30
2019-01-04T15:55:06.702Z,52.90
2019-01-04T16:00:02.216Z,58.20
2019-01-04T16:04:57.701Z,59.53
2019-01-04T16:09:53.172Z,62.77
2019-01-04T16:14:48.823Z,62.03
2019-01-04T16:19:44.299Z,64.63
2019-01-04T16:24:39.803Z,62.30
2019-01-04T16:29:35.331Z,61.57
2019-01-04T16:34:30.975Z,57.67
2019-01-04T16:39:26.504Z,62.87
2019-01-04T16:44:21.986Z,65.57
2019-01-04T16:49:17.546Z,67.17
2019-01-04T16:54:13.040Z,63.30
2019-01-04T16:59:08.549Z,65.77
2019-01-04T17:04:04.004Z,63.67
2019-01-04T17:08:59.525Z,66.43
2019-01-04T17:13:55.903Z,63.70
2019-01-04T17:18:51.493Z,64.33
2019-01-04T17:23:46.941Z,69.07
2019-01-04T17:28:42.631Z,59.73
2019-01-04T17:33:38.591Z,68.00
2019-01-04T17:38:34.122Z,65.63
2019-01-04T17:43:29.659Z,62.87
2019-01-04T17:48:25.138Z,63.47
2019-01-04T17:53:20.623Z,58.27
2019-01-04T17:58:16.087Z,61.10
2019-01-04T18:03:11.668Z,58.47
2019-01-04T18:08:07.154Z,60.23
2019-01-04T18:13:02.636Z,61.73
2019-01-04T18:17:58.701Z,60.27
2019-01-04T18:22:54.339Z,58.13
2019-01-04T18:27:49.839Z,63.63
2019-01-04T18:32:45.307Z,56.80
2019-01-04T18:37:40.802Z,61.47
2019-01-04T18:42:36.245Z,58.03
2019-01-04T18:47:31.778Z,58.17
2019-01-04T18:52:27.229Z,49.60
2019-01-04T18:57:22.847Z,59.23
2019-01-04T19:02:18.373Z,59.10
2019-01-04T19:07:15.614Z,56.10
2019-01-04T19:12:11.077Z,53.83
2019-01-04T19:17:06.845Z,49.37
2019-01-04T19:22:02.308Z,51.17
2019-01-04T19:26:57.766Z,51.73
2019-01-04T19:31:53.227Z,50.37
2019-01-04T19:36:48.691Z,56.43
2019-01-04T19:41:44.217Z,49.60
2019-01-04T19:46:39.699Z,51.00
2019-01-04T19:51:35.253Z,49.27
2019-01-04T19:56:30.826Z,49.27
2019-01-04T20:01:26.271Z,47.07
2019-01-04T20:07:55.039Z,52.53
2019-01-04T20:14:12.329Z,49.97
2019-01-04T20:19:26.765Z,49.03
2019-01-04T20:24:49.910Z,57.30
2019-01-04T20:30:03.565Z,51.13
2019-01-04T20:35:16.590Z,51.40
2019-01-04T20:40:36.712Z,49.27
2019-01-04T20:46:04.226Z,55.03
2019-01-04T20:51:21.336Z,54.47
2019-01-04T20:56:35.690Z,57.07
2019-01-04T21:01:51.530Z,60.47
2019-01-04T21:07:04.537Z,58.10
2019-01-04T21:12:19.010Z,62.43
2019-01-04T21:17:45.329Z,57.40
2019-01-04T21:23:08.422Z,61.20
2019-01-04T21:28:31.875Z,59.40
2019-01-04T21:33:44.801Z,60.57
2019-01-04T21:39:04.837Z,58.80
2019-01-04T21:44:22.223Z,60.07
2019-01-04T21:49:36.549Z,57.37
2019-01-04T21:54:56.838Z,62.53
2019-01-04T22:00:13.943Z,59.23
2019-01-04T22:05:43.219Z,62.77
2019-01-04T22:10:57.574Z,60.73
2019-01-04T22:16:10.397Z,58.67
2019-01-04T22:21:23.148Z,64.83
2019-01-04T22:26:43.708Z,64.93
2019-01-04T22:31:58.050Z,61.67
2019-01-04T22:37:12.411Z,62.70
2019-01-04T22:42:24.852Z,61.30
2019-01-04T22:47:42.270Z,60.00
2019-01-04T22:52:55.430Z,59.77
2019-01-04T22:58:08.504Z,69.00
2019-01-04T23:03:08.885Z,82.37
2019-01-04T23:08:22.706Z,56.77
2019-01-04T23:13:38.830Z,51.20
2019-01-04T23:18:59.961Z,49.53
2019-01-04T23:24:29.556Z,54.27
2019-01-04T23:29:43.839Z,51.73
2019-01-04T23:35:01.191Z,59.27
2019-01-04T23:40:28.248Z,56.93
2019-01-04T23:45:40.936Z,57.70
2019-01-04T23:51:11.188Z,53.77
2019-01-04T23:56:22.560Z,57.90
